Olamon, Maine
Current Conditions -  °F | °C
As of 8:53 AM on Friday 28 Nov 2014 (Local Time) from KBGR Reporting Station
Overcast Overcast  
Wind Chill: -13°   Ceiling: 12000
Heat Index: -7°   Visibility: 10mi
Dew Point: -11°   Wind: 8mph
Humidity: 77%   Direction: 10°N
Pressure: 30.05"   Gusts: NA
Location:  45.12°N, 68.6°W
Report Text: KBGR 281353Z 01007KT 10SM BKN120 OVC200 M07/M11 A3005 RMK AO2 SLP179 BINOVC T10721106
Loading
Personal Weather Stations






























Interactive Weather Map New forecast layout! Learn more

10-Day Weather Forecast

Advertisements
Track Severe Weather on mobile